createdAt,value
2018-12-22T00:00:28.235Z,3.73
2018-12-22T00:03:10.797Z,3.30
2018-12-22T00:05:57.561Z,3.90
2018-12-22T00:08:40.372Z,2.93
2018-12-22T00:11:22.981Z,3.40
2018-12-22T00:14:06.927Z,3.10
2018-12-22T00:16:50.195Z,3.13
2018-12-22T00:19:33.223Z,5.30
2018-12-22T00:22:16.379Z,4.17
2018-12-22T00:24:58.851Z,3.60
2018-12-22T00:27:41.403Z,13.50
2018-12-22T00:30:24.104Z,3.20
2018-12-22T00:33:06.825Z,6.00
2018-12-22T00:35:49.696Z,3.37
2018-12-22T00:38:32.386Z,3.77
2018-12-22T00:41:15.304Z,3.47
2018-12-22T00:43:57.878Z,3.80
2018-12-22T00:46:40.617Z,3.70
2018-12-22T00:49:23.196Z,4.30
2018-12-22T00:52:05.936Z,5.57
2018-12-22T00:54:48.514Z,8.23
2018-12-22T00:57:31.338Z,3.73
2018-12-22T01:00:14.066Z,3.83
2018-12-22T01:02:57.216Z,6.63
2018-12-22T01:05:39.826Z,4.53
2018-12-22T01:08:22.625Z,6.03
2018-12-22T01:11:05.181Z,2.97
2018-12-22T01:13:47.749Z,3.70
2018-12-22T01:16:30.904Z,5.07
2018-12-22T01:19:13.206Z,3.67
2018-12-22T01:21:55.796Z,4.90
2018-12-22T01:24:38.453Z,5.30
2018-12-22T01:27:21.281Z,5.50
2018-12-22T01:30:03.651Z,3.73
2018-12-22T01:32:46.228Z,3.53
2018-12-22T01:35:29.110Z,4.57
2018-12-22T01:38:11.908Z,6.67
2018-12-22T01:40:54.669Z,7.17
2018-12-22T01:43:37.179Z,4.00
2018-12-22T01:46:19.901Z,5.70
2018-12-22T01:49:02.457Z,5.23
2018-12-22T01:51:44.952Z,7.63
2018-12-22T01:54:27.655Z,6.20
2018-12-22T01:57:10.386Z,7.37
2018-12-22T01:59:52.912Z,4.33
2018-12-22T02:02:35.676Z,5.50
2018-12-22T02:05:18.665Z,4.70
2018-12-22T02:08:00.787Z,5.93
2018-12-22T02:10:43.541Z,7.37
2018-12-22T02:13:26.390Z,4.80
2018-12-22T02:16:09.344Z,5.10
2018-12-22T02:18:51.697Z,4.77
2018-12-22T02:21:34.124Z,4.50
2018-12-22T02:56:35.142Z,9.33
2018-12-22T02:59:17.678Z,6.00
2018-12-22T03:02:00.474Z,6.90
2018-12-22T03:04:43.289Z,7.30
2018-12-22T03:07:25.449Z,5.57
2018-12-22T03:10:08.065Z,5.43
2018-12-22T03:12:51.172Z,6.00
2018-12-22T03:15:33.616Z,5.70
2018-12-22T03:18:16.145Z,8.70
2018-12-22T03:20:58.598Z,7.67
2018-12-22T03:23:41.423Z,7.63
2018-12-22T03:26:24.597Z,7.33
2018-12-22T03:29:15.193Z,8.30
2018-12-22T03:31:51.429Z,6.00
2018-12-22T03:34:34.298Z,6.97
2018-12-22T03:37:17.080Z,7.17
2018-12-22T03:40:00.096Z,7.90
2018-12-22T03:42:42.569Z,6.10
2018-12-22T03:45:25.355Z,5.77
2018-12-22T03:48:07.717Z,6.87
2018-12-22T03:50:50.478Z,7.63
2018-12-22T03:53:33.160Z,5.50
2018-12-22T03:56:15.895Z,8.37
2018-12-22T03:58:58.342Z,5.37
2018-12-22T04:01:41.125Z,9.73
2018-12-22T04:04:27.719Z,9.30
2018-12-22T04:07:10.278Z,7.83
2018-12-22T04:09:53.272Z,6.13
2018-12-22T04:12:35.622Z,10.90
2018-12-22T04:15:18.482Z,7.47
2018-12-22T04:18:01.131Z,6.77
2018-12-22T04:20:43.592Z,5.53
2018-12-22T04:23:26.357Z,6.13
2018-12-22T04:26:09.358Z,8.90
2018-12-22T04:28:51.601Z,8.20
2018-12-22T04:31:34.380Z,8.40
2018-12-22T04:34:17.189Z,6.40
2018-12-22T04:36:59.755Z,6.60
2018-12-22T04:39:42.297Z,7.07
2018-12-22T04:42:25.370Z,8.17
2018-12-22T04:45:08.334Z,8.43
2018-12-22T04:47:50.653Z,10.77
2018-12-22T04:50:33.135Z,4.83
2018-12-22T04:53:15.938Z,6.47
2018-12-22T04:55:59.209Z,6.10
2018-12-22T04:58:41.675Z,7.83
2018-12-22T05:01:23.770Z,8.93
2018-12-22T05:04:06.612Z,6.20
2018-12-22T05:06:49.663Z,8.27
2018-12-22T05:09:32.017Z,5.90
2018-12-22T05:12:14.476Z,10.50
2018-12-22T05:14:57.167Z,7.30
2018-12-22T05:17:39.996Z,8.60
2018-12-22T05:20:22.625Z,5.57
2018-12-22T05:23:05.163Z,4.63
2018-12-22T05:25:47.993Z,5.23
2018-12-22T05:28:30.662Z,4.80
2018-12-22T05:31:13.271Z,9.60
2018-12-22T05:33:55.976Z,5.23
2018-12-22T05:36:38.641Z,6.53
2018-12-22T05:39:21.208Z,6.63
2018-12-22T05:42:03.874Z,7.00
2018-12-22T05:44:46.484Z,7.27
2018-12-22T05:47:29.254Z,6.50
2018-12-22T05:50:12.068Z,6.83
2018-12-22T05:52:54.769Z,7.20
2018-12-22T05:55:37.445Z,8.17
2018-12-22T05:58:20.216Z,7.23
2018-12-22T06:01:02.940Z,7.87
2018-12-22T06:03:45.501Z,10.20
2018-12-22T06:06:28.437Z,13.03
2018-12-22T06:09:11.513Z,8.70
2018-12-22T06:11:53.803Z,12.60
2018-12-22T06:14:36.680Z,16.00
2018-12-22T06:17:20.304Z,7.40
2018-12-22T06:20:03.065Z,11.60
2018-12-22T06:22:45.544Z,6.67
2018-12-22T06:25:28.366Z,10.07
2018-12-22T06:28:11.848Z,7.23
2018-12-22T06:30:54.802Z,6.03
2018-12-22T06:33:38.111Z,8.30
2018-12-22T06:36:20.293Z,6.60
2018-12-22T06:39:03.333Z,11.87
2018-12-22T06:41:45.325Z,5.77
2018-12-22T06:44:28.098Z,9.80
2018-12-22T06:47:10.805Z,7.17
2018-12-22T06:49:53.628Z,6.53
2018-12-22T06:52:36.430Z,7.07
2018-12-22T06:55:18.643Z,9.33
2018-12-22T06:58:01.306Z,13.80
2018-12-22T07:00:44.103Z,20.33
2018-12-22T07:03:27.065Z,8.67
2018-12-22T07:06:09.357Z,20.87
2018-12-22T07:08:52.206Z,6.43
2018-12-22T07:11:34.909Z,10.10
2018-12-22T07:14:18.501Z,19.73
2018-12-22T07:17:00.972Z,8.83
2018-12-22T07:19:43.648Z,6.17
2018-12-22T07:22:26.284Z,7.10
2018-12-22T07:25:09.106Z,12.67
2018-12-22T07:27:51.926Z,19.90
2018-12-22T07:30:35.080Z,10.30
2018-12-22T07:33:17.230Z,7.20
2018-12-22T07:35:59.831Z,11.30
2018-12-22T07:38:42.717Z,6.60
2018-12-22T07:41:25.424Z,6.23
2018-12-22T07:44:07.905Z,5.80
2018-12-22T07:46:50.658Z,15.67
2018-12-22T07:49:33.448Z,13.10
2018-12-22T07:52:21.779Z,12.80
2018-12-22T07:55:05.145Z,4.40
2018-12-22T07:57:47.389Z,12.17
2018-12-22T08:00:34.834Z,8.47
2018-12-22T08:03:15.005Z,13.30
2018-12-22T08:05:57.836Z,7.50
2018-12-22T08:08:40.555Z,8.97
2018-12-22T08:11:23.360Z,11.67
2018-12-22T08:14:05.858Z,10.00
2018-12-22T08:16:48.752Z,7.30
2018-12-22T08:19:31.344Z,5.87
2018-12-22T08:22:14.121Z,12.63
2018-12-22T08:24:56.821Z,6.80
2018-12-22T08:27:39.457Z,9.20
2018-12-22T08:30:22.260Z,8.60
2018-12-22T08:33:04.937Z,7.77
2018-12-22T08:35:47.536Z,6.60
2018-12-22T08:38:30.115Z,11.27
2018-12-22T08:41:12.976Z,5.50
2018-12-22T08:43:55.915Z,4.23
2018-12-22T08:46:38.744Z,6.70
2018-12-22T08:49:21.181Z,4.57
2018-12-22T08:52:03.730Z,4.23
2018-12-22T08:54:46.500Z,6.77
2018-12-22T08:57:29.096Z,7.63
2018-12-22T09:00:13.140Z,10.23
2018-12-22T09:02:55.601Z,10.83
2018-12-22T09:05:38.293Z,11.10
2018-12-22T09:08:20.995Z,12.93
2018-12-22T09:11:03.689Z,10.70
2018-12-22T09:13:46.488Z,11.33
2018-12-22T09:16:29.055Z,12.17
2018-12-22T09:19:11.793Z,12.03
2018-12-22T09:21:54.573Z,16.40
2018-12-22T09:24:37.984Z,19.27
2018-12-22T09:27:20.846Z,13.80
2018-12-22T09:30:07.494Z,13.90
2018-12-22T09:32:50.246Z,11.37
2018-12-22T09:35:34.029Z,20.10
2018-12-22T09:38:16.728Z,21.20
2018-12-22T09:40:59.672Z,23.93
2018-12-22T09:43:41.793Z,20.70
2018-12-22T09:46:24.867Z,15.70
2018-12-22T09:49:07.200Z,25.37
2018-12-22T09:51:50.024Z,29.80
2018-12-22T09:54:32.837Z,18.13
2018-12-22T09:57:15.153Z,21.23
2018-12-22T09:59:57.836Z,20.47
2018-12-22T10:02:40.680Z,17.87
2018-12-22T10:05:23.257Z,27.37
2018-12-22T10:08:06.092Z,20.17
2018-12-22T10:10:49.016Z,26.83
2018-12-22T10:13:32.165Z,21.60
2018-12-22T10:16:14.941Z,29.27
2018-12-22T10:18:57.587Z,15.57
2018-12-22T10:21:40.067Z,15.37
2018-12-22T10:24:22.745Z,23.97
2018-12-22T10:27:05.831Z,24.93
2018-12-22T10:29:48.077Z,29.33
2018-12-22T10:32:31.171Z,26.23
2018-12-22T10:35:19.827Z,23.37
2018-12-22T10:38:02.345Z,25.43
2018-12-22T10:40:47.933Z,41.93
2018-12-22T10:43:30.746Z,24.93
2018-12-22T10:46:13.694Z,35.33
2018-12-22T10:48:56.775Z,19.60
2018-12-22T10:51:39.606Z,22.67
2018-12-22T10:54:22.353Z,29.40
2018-12-22T10:57:04.989Z,30.37
2018-12-22T10:59:48.481Z,27.50
2018-12-22T11:02:31.679Z,22.37
2018-12-22T11:05:15.375Z,21.47
2018-12-22T11:07:57.792Z,24.97
2018-12-22T11:10:40.678Z,21.50
2018-12-22T11:13:23.005Z,23.63
2018-12-22T11:16:11.942Z,27.60
2018-12-22T11:18:54.990Z,19.63
2018-12-22T11:21:38.074Z,23.90
2018-12-22T11:24:20.910Z,19.37
2018-12-22T11:27:10.694Z,27.63
2018-12-22T11:29:59.868Z,21.40
2018-12-22T11:33:03.276Z,28.03
2018-12-22T11:35:45.279Z,33.47
2018-12-22T11:38:27.964Z,28.90
2018-12-22T11:41:10.637Z,26.43
2018-12-22T11:43:54.476Z,35.00
2018-12-22T11:46:38.217Z,45.57
2018-12-22T11:49:34.033Z,24.07
2018-12-22T11:52:17.065Z,29.33
2018-12-22T11:55:01.158Z,24.37
2018-12-22T11:57:43.872Z,22.10
2018-12-22T12:00:26.721Z,22.53
2018-12-22T12:03:09.434Z,23.10
2018-12-22T12:05:51.988Z,31.17
2018-12-22T12:08:35.584Z,31.27
2018-12-22T12:11:18.240Z,20.03
2018-12-22T12:14:00.963Z,26.97
2018-12-22T12:17:03.376Z,28.23
2018-12-22T12:19:45.557Z,29.30
2018-12-22T12:22:28.125Z,18.30
2018-12-22T12:25:11.003Z,15.33
2018-12-22T12:27:53.602Z,26.63
2018-12-22T12:30:37.224Z,17.60
2018-12-22T12:33:19.958Z,22.70
2018-12-22T12:36:03.374Z,25.23
2018-12-22T12:38:47.604Z,20.00
2018-12-22T12:41:30.061Z,25.63
2018-12-22T12:44:12.574Z,22.63
2018-12-22T12:46:55.662Z,20.97
2018-12-22T12:49:38.057Z,23.27
2018-12-22T12:52:20.733Z,18.97
2018-12-22T12:55:05.905Z,18.73
2018-12-22T12:57:48.731Z,18.17
2018-12-22T13:00:33.213Z,17.90
2018-12-22T13:03:17.634Z,15.30
2018-12-22T13:06:00.877Z,18.67
2018-12-22T13:08:43.640Z,13.70
2018-12-22T13:11:26.454Z,16.83
2018-12-22T13:14:16.445Z,17.30
2018-12-22T13:16:59.598Z,21.23
2018-12-22T13:19:42.490Z,13.73
2018-12-22T13:22:25.153Z,18.13
2018-12-22T13:25:07.663Z,13.43
2018-12-22T13:27:51.231Z,6.90
2018-12-22T13:30:34.072Z,7.50
2018-12-22T13:33:17.451Z,6.60
2018-12-22T13:36:01.096Z,12.43
2018-12-22T13:38:49.063Z,11.20
2018-12-22T13:41:31.462Z,14.03
2018-12-22T13:44:14.267Z,15.43
2018-12-22T13:46:57.075Z,18.63
2018-12-22T13:49:39.445Z,9.80
2018-12-22T13:52:22.085Z,23.77
2018-12-22T13:55:05.099Z,20.83
2018-12-22T13:57:47.478Z,10.63
2018-12-22T14:00:32.657Z,18.97
2018-12-22T14:03:21.032Z,14.93
2018-12-22T14:06:03.538Z,15.83
2018-12-22T14:08:46.058Z,14.83
2018-12-22T14:11:34.356Z,22.07
2018-12-22T14:14:21.366Z,17.33
2018-12-22T14:17:12.395Z,11.53
2018-12-22T14:20:11.657Z,16.80
2018-12-22T14:22:55.545Z,10.30
2018-12-22T14:25:38.129Z,12.70
2018-12-22T14:28:21.129Z,15.13
2018-12-22T14:31:03.606Z,15.00
2018-12-22T14:33:46.355Z,17.43
2018-12-22T14:36:29.009Z,13.83
2018-12-22T14:39:11.838Z,16.87
2018-12-22T14:41:54.745Z,20.93
2018-12-22T14:44:37.002Z,13.23
2018-12-22T14:47:22.525Z,13.07
2018-12-22T14:50:06.569Z,15.87
2018-12-22T14:52:50.043Z,13.50
2018-12-22T14:55:33.405Z,11.13
2018-12-22T14:58:21.073Z,15.80
2018-12-22T15:01:03.340Z,11.30
2018-12-22T15:03:45.973Z,12.97
2018-12-22T15:06:28.553Z,11.53
2018-12-22T15:09:13.362Z,14.23
2018-12-22T15:11:56.248Z,11.23
2018-12-22T15:14:38.797Z,19.77
2018-12-22T15:17:21.378Z,17.73
2018-12-22T15:20:05.017Z,15.40
2018-12-22T15:22:47.756Z,12.60
2018-12-22T15:25:31.840Z,24.87
2018-12-22T15:28:14.125Z,19.80
2018-12-22T15:30:56.770Z,19.63
2018-12-22T15:33:39.340Z,17.83
2018-12-22T15:36:21.952Z,15.63
2018-12-22T15:39:07.105Z,20.40
2018-12-22T15:41:49.448Z,16.13
2018-12-22T15:44:32.219Z,10.67
2018-12-22T15:47:14.868Z,25.00
2018-12-22T15:49:57.648Z,23.23
2018-12-22T15:52:40.504Z,15.57
2018-12-22T15:55:23.060Z,19.30
2018-12-22T15:58:05.488Z,17.07
2018-12-22T16:00:49.325Z,19.33
2018-12-22T16:03:32.453Z,72.10
2018-12-22T16:06:15.137Z,20.30
2018-12-22T16:08:57.274Z,17.20
2018-12-22T16:11:40.061Z,15.30
2018-12-22T16:14:22.586Z,15.73
2018-12-22T16:17:05.385Z,14.70
2018-12-22T16:19:47.963Z,12.43
2018-12-22T16:22:30.760Z,13.27
2018-12-22T16:25:13.481Z,12.07
2018-12-22T16:27:59.452Z,14.67
2018-12-22T16:30:46.109Z,15.13
2018-12-22T16:33:29.461Z,8.30
2018-12-22T16:36:12.264Z,12.93
2018-12-22T16:38:54.389Z,12.93
2018-12-22T16:41:37.140Z,9.70
2018-12-22T16:44:19.824Z,8.80
2018-12-22T16:47:02.100Z,9.23
2018-12-22T16:49:45.693Z,9.80
2018-12-22T16:52:28.577Z,13.27
2018-12-22T16:55:12.833Z,18.83
2018-12-22T16:58:01.636Z,11.00
2018-12-22T17:00:50.457Z,8.37
2018-12-22T17:03:33.336Z,10.23
2018-12-22T17:06:16.662Z,6.90
2018-12-22T17:08:58.893Z,9.93
2018-12-22T17:11:41.659Z,5.30
2018-12-22T17:14:24.112Z,4.83
2018-12-22T17:17:06.759Z,11.13
2018-12-22T17:19:49.322Z,8.43
2018-12-22T17:23:41.817Z,6.60
2018-12-22T17:26:28.222Z,6.23
2018-12-22T17:29:10.301Z,4.00
2018-12-22T17:31:52.978Z,6.50
2018-12-22T17:34:35.673Z,4.23
2018-12-22T17:37:18.610Z,6.70
2018-12-22T17:40:08.900Z,6.40
2018-12-22T17:42:45.706Z,3.53
2018-12-22T17:45:29.287Z,5.53
2018-12-22T17:48:12.312Z,7.47
2018-12-22T17:50:54.949Z,7.03
2018-12-22T17:53:38.119Z,5.07
2018-12-22T17:56:21.060Z,3.50
2018-12-22T17:59:03.748Z,3.30
2018-12-22T18:01:46.296Z,4.77
2018-12-22T18:04:29.048Z,5.53
2018-12-22T18:07:12.385Z,5.57
2018-12-22T18:09:55.323Z,6.60
2018-12-22T18:12:39.041Z,8.50
2018-12-22T18:15:23.133Z,4.53
2018-12-22T18:18:05.333Z,4.87
2018-12-22T18:20:48.037Z,8.47
2018-12-22T18:23:30.737Z,4.53
2018-12-22T18:26:13.363Z,4.13
2018-12-22T18:28:56.637Z,6.50
2018-12-22T18:31:39.896Z,5.40
2018-12-22T18:34:27.153Z,2.83
2018-12-22T18:37:09.828Z,94.53
2018-12-22T18:39:52.149Z,7.87
2018-12-22T18:42:34.923Z,7.13
2018-12-22T18:45:17.673Z,7.20
2018-12-22T18:48:00.150Z,3.30
2018-12-22T18:50:42.716Z,19.30
2018-12-22T18:53:29.213Z,18.60
2018-12-22T18:56:12.645Z,2.30
2018-12-22T18:58:56.484Z,3.77
2018-12-22T19:01:39.130Z,3.20
2018-12-22T19:04:23.746Z,5.93
2018-12-22T19:07:07.425Z,2.50
2018-12-22T19:09:50.992Z,2.00
2018-12-22T19:12:36.893Z,2.70
2018-12-22T19:15:20.363Z,2.53
2018-12-22T19:18:04.050Z,2.30
2018-12-22T19:20:52.540Z,2.60
2018-12-22T19:23:35.484Z,2.30
2018-12-22T19:26:21.433Z,1.80
2018-12-22T19:29:07.529Z,2.17
2018-12-22T19:31:50.536Z,2.60
2018-12-22T19:34:34.212Z,2.60
2018-12-22T19:37:22.633Z,4.00
2018-12-22T19:40:15.262Z,2.40
2018-12-22T19:42:59.208Z,1.87
2018-12-22T19:45:43.499Z,2.87
2018-12-22T19:48:25.760Z,2.20
2018-12-22T19:51:09.569Z,2.23
2018-12-22T19:53:53.209Z,2.40
2018-12-22T19:56:35.982Z,2.10
2018-12-22T19:59:19.060Z,2.07
2018-12-22T20:02:01.409Z,1.53
2018-12-22T20:04:44.445Z,1.50
2018-12-22T20:07:28.021Z,1.30
2018-12-22T20:10:10.568Z,1.60
2018-12-22T20:12:53.053Z,1.87
2018-12-22T20:15:36.964Z,3.13
2018-12-22T20:18:19.298Z,2.17
2018-12-22T20:21:09.664Z,2.00
2018-12-22T20:23:51.947Z,2.03
2018-12-22T20:26:34.852Z,4.60
2018-12-22T20:29:17.439Z,1.40
2018-12-22T20:32:01.716Z,1.50
2018-12-22T20:34:44.753Z,1.90
2018-12-22T20:37:27.521Z,1.60
2018-12-22T20:40:10.270Z,1.80
2018-12-22T20:42:53.239Z,1.70
2018-12-22T20:45:36.497Z,2.23
2018-12-22T20:48:20.033Z,2.33
2018-12-22T20:51:02.140Z,2.03
2018-12-22T20:53:45.100Z,3.37
2018-12-22T20:56:27.675Z,1.80
2018-12-22T20:59:12.587Z,1.93
2018-12-22T21:01:55.519Z,8.70
2018-12-22T21:04:39.561Z,7.23
2018-12-22T21:07:22.152Z,4.53
2018-12-22T21:10:04.829Z,11.40
2018-12-22T21:12:48.141Z,3.47
2018-12-22T21:15:30.534Z,4.23
2018-12-22T21:18:13.104Z,10.30
2018-12-22T21:20:55.734Z,4.90
2018-12-22T21:23:38.650Z,11.53
2018-12-22T21:26:22.032Z,8.30
2018-12-22T21:29:04.561Z,3.20
2018-12-22T21:31:47.485Z,4.20
2018-12-22T21:34:30.700Z,7.90
2018-12-22T21:37:15.489Z,6.67
2018-12-22T21:39:57.722Z,23.73
2018-12-22T21:42:40.496Z,19.60
2018-12-22T21:45:23.148Z,4.00
2018-12-22T21:48:06.492Z,3.83
2018-12-22T21:50:50.210Z,14.10
2018-12-22T21:53:33.315Z,9.87
2018-12-22T21:56:15.775Z,4.60
2018-12-22T21:58:59.089Z,2.47
2018-12-22T22:01:41.209Z,2.50
2018-12-22T22:04:24.535Z,2.53
2018-12-22T22:07:06.866Z,1.90
2018-12-22T22:09:50.918Z,1.70
2018-12-22T22:12:33.078Z,4.57
2018-12-22T22:15:15.710Z,24.37
2018-12-22T22:17:58.561Z,20.37
2018-12-22T22:20:41.093Z,33.30
2018-12-22T22:23:24.749Z,6.70
2018-12-22T22:26:08.209Z,9.83
2018-12-22T22:28:53.934Z,3.90
2018-12-22T22:31:36.583Z,2.80
2018-12-22T22:34:19.735Z,2.13
2018-12-22T22:37:02.247Z,2.30
2018-12-22T22:39:44.860Z,1.70
2018-12-22T22:42:27.651Z,2.13
2018-12-22T22:45:10.279Z,5.07
2018-12-22T22:47:53.090Z,1.73
2018-12-22T22:50:36.380Z,1.53
2018-12-22T22:53:18.696Z,2.33
2018-12-22T22:56:01.670Z,2.60
2018-12-22T22:58:44.769Z,2.90
2018-12-22T23:01:27.533Z,1.40
2018-12-22T23:04:09.824Z,1.93
2018-12-22T23:06:52.341Z,1.80
2018-12-22T23:09:35.198Z,5.20
2018-12-22T23:12:17.966Z,1.63
2018-12-22T23:15:00.436Z,1.20
2018-12-22T23:17:43.156Z,1.57
2018-12-22T23:20:25.845Z,8.07
2018-12-22T23:23:08.791Z,4.77
2018-12-22T23:25:51.761Z,3.97
2018-12-22T23:28:34.285Z,3.33
2018-12-22T23:31:16.979Z,11.00
2018-12-22T23:33:59.748Z,3.53
2018-12-22T23:36:43.267Z,4.00
2018-12-22T23:39:26.083Z,1.60
2018-12-22T23:42:09.041Z,4.63
2018-12-22T23:44:51.656Z,10.17
2018-12-22T23:47:34.469Z,2.03
2018-12-22T23:50:17.683Z,2.10
2018-12-22T23:53:00.338Z,3.37
2018-12-22T23:55:42.792Z,2.90
2018-12-22T23:58:25.425Z,5.60
